Time;durP1;ratioP1;P1;durP2;ratioP2;P2;SDS_P1;SDS_P2;PMS_P1;PMS_P2;Temp;Humidity;BMP_temperature;BMP_pressure;BME280_temperature;BME280_humidity;BME280_pressure;Samples;Min_cycle;Max_cycle;Signal;HPM_P1;HPM_P2
2021/11/10 00:00:49;;;;;;;5.53;3.70;;;6.10;99.90;;;;;;5030746;28;20823;-69
2021/11/10 00:03:14;;;;;;;7.00;4.33;;;6.10;99.90;;;;;;5026887;28;20213;-68
2021/11/10 00:05:41;;;;;;;5.63;4.33;;;6.00;99.90;;;;;;5027884;28;20187;-69
2021/11/10 00:08:07;;;;;;;11.30;4.63;;;6.00;99.90;;;;;;5013521;28;20203;-69
2021/11/10 00:10:33;;;;;;;11.20;3.97;;;6.00;99.90;;;;;;5014813;28;20439;-69
2021/11/10 00:15:46;;;;;;;6.57;5.60;;;6.00;99.90;;;;;;5013371;28;20498;-70
2021/11/10 00:18:12;;;;;;;6.50;4.50;;;6.00;99.90;;;;;;5014539;28;20521;-69
2021/11/10 00:20:37;;;;;;;8.03;4.93;;;6.00;99.90;;;;;;5013030;28;20407;-70
2021/11/10 00:23:03;;;;;;;5.00;3.97;;;6.00;99.90;;;;;;5013214;28;20790;-70
2021/11/10 00:25:31;;;;;;;6.40;4.13;;;5.90;99.90;;;;;;5013061;28;20251;-69
2021/11/10 00:27:57;;;;;;;7.13;5.10;;;6.00;99.90;;;;;;5013295;28;20168;-69
2021/11/10 00:30:22;;;;;;;6.40;5.20;;;5.90;99.90;;;;;;5012911;28;20874;-68
2021/11/10 00:32:48;;;;;;;6.23;4.03;;;5.90;99.90;;;;;;5013187;28;20181;-69
2021/11/10 00:35:13;;;;;;;6.53;5.70;;;5.90;99.90;;;;;;5014066;28;20192;-69
2021/11/10 00:37:39;;;;;;;4.23;3.63;;;5.90;99.90;;;;;;5012687;28;20187;-69
2021/11/10 00:40:05;;;;;;;6.20;4.83;;;5.90;99.90;;;;;;5013174;28;20659;-70
2021/11/10 00:42:31;;;;;;;6.53;4.20;;;5.80;99.90;;;;;;5012969;28;20576;-68
2021/11/10 00:44:56;;;;;;;5.50;4.90;;;5.90;99.90;;;;;;5012826;28;20403;-68
2021/11/10 00:47:21;;;;;;;4.97;4.50;;;5.80;99.90;;;;;;5013091;28;20175;-69
2021/11/10 00:49:47;;;;;;;4.73;4.10;;;5.80;99.90;;;;;;5012770;28;20298;-69
2021/11/10 00:52:12;;;;;;;7.57;4.27;;;5.80;99.90;;;;;;5012918;28;20176;-70
2021/11/10 00:54:38;;;;;;;5.20;4.40;;;5.70;99.90;;;;;;5012733;28;20254;-69
2021/11/10 00:57:04;;;;;;;3.63;3.33;;;5.70;99.90;;;;;;5012716;28;20179;-70
2021/11/10 00:59:29;;;;;;;7.73;5.60;;;5.70;99.90;;;;;;5012767;28;20730;-70
2021/11/10 01:01:55;;;;;;;4.07;3.17;;;5.60;99.90;;;;;;5017639;28;20450;-70
2021/11/10 01:04:21;;;;;;;5.03;4.47;;;5.60;99.90;;;;;;5032353;28;20274;-70
2021/11/10 01:06:47;;;;;;;5.37;4.90;;;5.60;99.90;;;;;;5032432;28;20682;-69
2021/11/10 01:09:17;;;;;;;6.00;4.53;;;5.60;99.90;;;;;;5032254;28;20848;-69
2021/11/10 01:11:44;;;;;;;5.07;4.57;;;5.50;99.90;;;;;;5031945;28;20844;-69
2021/11/10 01:14:09;;;;;;;4.57;3.33;;;5.50;99.90;;;;;;5032012;28;20441;-68
2021/11/10 01:16:35;;;;;;;8.47;4.07;;;5.40;99.90;;;;;;5031859;28;20885;-69
2021/11/10 01:19:00;;;;;;;8.77;4.90;;;5.40;99.90;;;;;;5031747;28;20264;-69
2021/11/10 01:21:26;;;;;;;11.97;3.97;;;5.30;99.90;;;;;;5031625;28;20183;-69
2021/11/10 01:23:51;;;;;;;5.40;4.27;;;5.30;99.90;;;;;;5031852;28;20262;-69
2021/11/10 01:26:17;;;;;;;10.33;3.60;;;5.30;99.90;;;;;;5031769;28;20691;-69
2021/11/10 01:28:44;;;;;;;7.07;4.37;;;5.30;99.90;;;;;;5031901;28;20231;-69
2021/11/10 01:31:10;;;;;;;7.03;5.37;;;5.20;99.90;;;;;;5031769;28;20414;-71
2021/11/10 01:33:35;;;;;;;7.57;4.63;;;5.20;99.90;;;;;;5031653;28;20579;-71
2021/11/10 01:36:01;;;;;;;4.93;4.40;;;5.20;99.90;;;;;;5030749;28;20406;-69
2021/11/10 01:38:26;;;;;;;6.00;5.37;;;5.10;99.90;;;;;;5031433;28;20195;-69
2021/11/10 01:40:52;;;;;;;7.43;5.57;;;5.10;99.90;;;;;;5031812;28;20193;-69
2021/11/10 01:43:20;;;;;;;4.60;3.43;;;5.10;99.90;;;;;;5031565;28;20238;-70
2021/11/10 01:45:46;;;;;;;6.43;4.77;;;5.10;99.90;;;;;;5031629;28;20433;-70
2021/11/10 01:48:12;;;;;;;4.87;4.33;;;5.10;99.90;;;;;;5031372;28;20410;-70
2021/11/10 01:50:38;;;;;;;4.90;3.97;;;5.10;99.90;;;;;;5030114;28;20407;-70
2021/11/10 01:53:03;;;;;;;6.00;4.40;;;5.00;99.90;;;;;;5031750;28;20410;-69
2021/11/10 01:55:29;;;;;;;5.20;4.57;;;5.00;99.90;;;;;;5031616;28;20196;-69
2021/11/10 01:57:55;;;;;;;8.10;4.47;;;5.00;99.90;;;;;;5031912;28;20171;-69
2021/11/10 02:00:30;;;;;;;5.77;4.40;;;5.00;99.90;;;;;;5031384;28;20195;-69
2021/11/10 02:02:57;;;;;;;5.93;4.80;;;5.00;99.90;;;;;;5031169;28;20230;-69
2021/11/10 02:05:23;;;;;;;6.10;4.43;;;5.10;99.90;;;;;;5031276;28;20403;-69
2021/11/10 02:07:49;;;;;;;7.57;4.93;;;5.00;99.90;;;;;;5013138;28;20415;-70
2021/11/10 02:10:19;;;;;;;6.37;5.00;;;5.00;99.90;;;;;;5011551;28;20441;-69
2021/11/10 02:12:45;;;;;;;5.30;3.97;;;5.00;99.90;;;;;;5010432;28;21124;-69
2021/11/10 02:15:15;;;;;;;13.43;4.47;;;5.00;99.90;;;;;;5011337;28;20443;-69
2021/11/10 02:17:40;;;;;;;7.80;4.73;;;5.00;99.90;;;;;;5011367;28;20431;-69
2021/11/10 02:20:09;;;;;;;12.50;5.80;;;5.00;99.90;;;;;;5011475;28;20481;-69
2021/11/10 02:22:36;;;;;;;6.37;5.33;;;5.00;99.90;;;;;;5011435;28;20203;-68
2021/11/10 02:25:04;;;;;;;7.57;5.37;;;4.90;99.90;;;;;;5011197;28;20893;-69
2021/11/10 02:27:35;;;;;;;8.50;5.77;;;4.90;99.90;;;;;;5011339;28;20408;-69
2021/11/10 02:30:21;;;;;;;6.43;4.83;;;4.90;99.90;;;;;;5011360;28;21173;-68
2021/11/10 02:32:52;;;;;;;5.70;4.13;;;4.90;99.90;;;;;;5019335;28;20514;-69
2021/11/10 02:35:24;;;;;;;6.10;4.43;;;4.90;99.90;;;;;;5030812;28;20402;-69
2021/11/10 02:37:52;;;;;;;4.10;3.20;;;4.90;99.90;;;;;;5023420;28;20772;-69
2021/11/10 02:40:17;;;;;;;8.13;4.97;;;4.80;99.90;;;;;;5030983;28;20517;-69
2021/11/10 02:42:43;;;;;;;8.87;4.87;;;4.80;99.90;;;;;;5030836;28;20545;-68
2021/11/10 02:45:10;;;;;;;7.20;4.53;;;4.80;99.90;;;;;;5030502;28;20539;-68
2021/11/10 02:47:36;;;;;;;4.03;3.60;;;4.80;99.90;;;;;;5030675;28;20168;-69
2021/11/10 02:50:03;;;;;;;6.90;4.50;;;4.80;99.90;;;;;;5030652;28;20449;-68
2021/11/10 02:52:29;;;;;;;5.60;4.17;;;4.80;99.90;;;;;;5030693;28;20174;-69
2021/11/10 02:54:55;;;;;;;6.90;4.27;;;4.70;99.90;;;;;;5030729;28;20407;-69
2021/11/10 02:57:24;;;;;;;5.03;4.63;;;4.70;99.90;;;;;;5030853;28;20635;-68
2021/11/10 02:59:51;;;;;;;5.70;4.27;;;4.70;99.90;;;;;;5031110;28;20195;-69
2021/11/10 03:02:24;;;;;;;9.80;4.90;;;4.70;99.90;;;;;;5034497;28;20457;-69
2021/11/10 03:04:49;;;;;;;8.00;4.83;;;4.70;99.90;;;;;;5034228;28;20920;-69
2021/11/10 03:07:15;;;;;;;7.70;4.90;;;4.60;99.90;;;;;;5034386;28;20489;-69
2021/11/10 03:09:44;;;;;;;5.43;4.07;;;4.60;99.90;;;;;;5034424;28;20192;-70
2021/11/10 03:12:11;;;;;;;5.40;3.50;;;4.60;99.90;;;;;;5034398;28;20178;-69
2021/11/10 03:14:38;;;;;;;6.40;3.20;;;4.60;99.90;;;;;;5034211;28;20487;-69
2021/11/10 03:17:09;;;;;;;7.47;5.77;;;4.60;99.90;;;;;;5034313;28;20414;-69
2021/11/10 03:19:35;;;;;;;5.30;4.80;;;4.60;99.90;;;;;;5034529;28;20458;-68
2021/11/10 03:22:02;;;;;;;4.57;3.70;;;4.50;99.90;;;;;;5034513;28;20497;-69
2021/11/10 03:24:28;;;;;;;6.97;3.73;;;4.50;99.90;;;;;;5034000;28;20172;-70
2021/11/10 03:26:53;;;;;;;6.77;4.23;;;4.60;99.90;;;;;;5034152;28;20409;-69
2021/11/10 03:29:19;;;;;;;5.07;4.67;;;4.50;99.90;;;;;;5034020;28;20605;-68
2021/11/10 03:31:45;;;;;;;3.80;3.50;;;4.50;99.90;;;;;;5033926;28;20172;-70
2021/11/10 03:34:11;;;;;;;5.67;4.10;;;4.40;99.90;;;;;;5033785;28;20278;-70
2021/11/10 03:36:38;;;;;;;7.40;5.60;;;4.40;99.90;;;;;;5033809;28;20172;-69
2021/11/10 03:39:08;;;;;;;5.37;4.20;;;4.40;99.90;;;;;;5033722;28;20430;-70
2021/11/10 03:41:34;;;;;;;5.90;4.73;;;4.40;99.90;;;;;;5033609;28;20468;-68
2021/11/10 03:44:00;;;;;;;6.57;4.67;;;4.30;99.90;;;;;;5033575;28;20972;-69
2021/11/10 03:46:27;;;;;;;10.23;4.70;;;4.30;99.90;;;;;;5033450;28;20398;-69
2021/11/10 03:48:53;;;;;;;7.80;4.73;;;4.30;99.90;;;;;;5033447;28;20257;-69
2021/11/10 03:51:19;;;;;;;5.57;4.37;;;4.30;99.90;;;;;;5033679;28;20739;-69
2021/11/10 03:53:45;;;;;;;4.10;3.67;;;4.20;99.90;;;;;;5033408;28;20167;-69
2021/11/10 03:56:10;;;;;;;8.97;4.87;;;4.20;99.90;;;;;;5033427;28;20172;-69
2021/11/10 03:58:36;;;;;;;5.73;4.07;;;4.20;99.90;;;;;;5033250;28;20429;-70
2021/11/10 04:01:02;;;;;;;5.53;4.60;;;4.20;99.90;;;;;;5033286;28;20199;-69
2021/11/10 04:03:29;;;;;;;5.30;4.77;;;4.20;99.90;;;;;;5032975;28;20482;-69
2021/11/10 04:05:54;;;;;;;4.17;3.77;;;4.20;99.90;;;;;;5033319;28;20409;-67
2021/11/10 04:08:20;;;;;;;8.03;4.77;;;4.20;99.90;;;;;;5033389;28;20493;-69
2021/11/10 04:10:46;;;;;;;7.27;5.10;;;4.10;99.90;;;;;;5031879;28;20168;-69
2021/11/10 04:13:11;;;;;;;6.07;4.80;;;4.10;99.90;;;;;;5033139;28;20410;-69
2021/11/10 04:15:37;;;;;;;4.63;3.43;;;4.10;99.90;;;;;;5033085;28;20167;-69
2021/11/10 04:18:03;;;;;;;8.17;4.50;;;4.10;99.90;;;;;;5032956;28;20183;-69
2021/11/10 04:20:28;;;;;;;8.00;4.53;;;4.00;99.90;;;;;;5032994;28;20183;-67
2021/11/10 04:22:54;;;;;;;8.30;4.60;;;4.00;99.90;;;;;;5032209;28;20446;-67
2021/11/10 04:25:19;;;;;;;5.80;3.87;;;4.10;99.90;;;;;;5032711;28;20176;-68
2021/11/10 04:27:45;;;;;;;5.47;4.93;;;4.00;99.90;;;;;;5032768;28;20627;-68
2021/11/10 04:30:11;;;;;;;6.60;3.97;;;4.10;99.90;;;;;;5032663;28;20192;-67
2021/11/10 04:32:37;;;;;;;7.07;5.47;;;4.00;99.90;;;;;;5032672;28;20693;-67
2021/11/10 04:35:04;;;;;;;4.17;3.87;;;4.00;99.90;;;;;;5032587;28;20472;-67
2021/11/10 04:37:30;;;;;;;7.53;5.40;;;4.00;99.90;;;;;;5032610;28;20489;-67
2021/11/10 04:39:55;;;;;;;6.93;5.70;;;4.00;99.90;;;;;;5031251;28;20518;-68
2021/11/10 04:42:21;;;;;;;7.83;4.97;;;3.90;99.90;;;;;;5032402;28;20254;-67
2021/11/10 04:44:54;;;;;;;6.00;4.47;;;3.90;99.90;;;;;;5032342;28;20258;-67
2021/11/10 04:47:19;;;;;;;8.90;5.47;;;3.90;99.90;;;;;;5032572;28;20217;-67
2021/11/10 04:49:45;;;;;;;5.10;4.60;;;3.90;99.90;;;;;;5032120;28;20422;-67
2021/11/10 04:52:11;;;;;;;6.07;3.73;;;3.80;99.90;;;;;;5032465;28;20167;-67
2021/11/10 04:54:37;;;;;;;4.60;4.10;;;3.80;99.90;;;;;;5031552;28;20587;-67
2021/11/10 04:57:04;;;;;;;9.30;4.97;;;3.80;99.90;;;;;;5032182;28;20506;-67
2021/11/10 04:59:31;;;;;;;7.00;4.17;;;3.90;99.90;;;;;;5032044;28;20641;-67
2021/11/10 05:04:39;;;;;;;8.43;4.70;;;3.80;99.90;;;;;;5032129;28;20446;-67
2021/11/10 05:07:09;;;;;;;6.80;6.10;;;3.80;99.90;;;;;;5032048;28;20488;-67
2021/11/10 05:09:35;;;;;;;11.60;5.30;;;3.90;99.90;;;;;;5031943;28;20438;-68
2021/11/10 05:12:00;;;;;;;5.23;4.40;;;3.80;99.90;;;;;;5031844;28;20426;-68
2021/11/10 05:14:26;;;;;;;7.40;4.50;;;3.80;99.90;;;;;;5031801;28;20266;-67
2021/11/10 05:16:51;;;;;;;5.30;4.90;;;3.80;99.90;;;;;;5031798;28;20186;-68
2021/11/10 05:19:18;;;;;;;5.40;4.20;;;3.80;99.90;;;;;;5031843;28;20200;-68
2021/11/10 05:21:43;;;;;;;6.90;5.37;;;3.80;99.90;;;;;;5031368;28;20233;-68
2021/11/10 05:24:09;;;;;;;3.70;3.40;;;3.80;99.90;;;;;;5031602;28;20418;-69
2021/11/10 05:26:36;;;;;;;7.90;5.53;;;3.80;99.90;;;;;;5031764;28;20168;-70
2021/11/10 05:29:01;;;;;;;8.57;4.80;;;3.80;99.90;;;;;;5031995;28;20434;-69
2021/11/10 05:31:27;;;;;;;4.30;3.90;;;3.80;99.90;;;;;;5031575;28;20898;-68
2021/11/10 05:33:53;;;;;;;6.10;5.00;;;3.80;99.90;;;;;;5031525;28;20212;-68
2021/11/10 05:36:18;;;;;;;8.30;4.97;;;3.80;99.90;;;;;;5031695;28;20218;-68
2021/11/10 05:38:44;;;;;;;5.87;4.13;;;3.80;99.90;;;;;;5031406;28;20546;-68
2021/11/10 05:41:10;;;;;;;7.73;4.20;;;3.80;99.90;;;;;;5031314;28;20182;-69
2021/11/10 05:43:35;;;;;;;7.30;4.93;;;3.80;99.90;;;;;;5031282;28;20203;-69
2021/11/10 05:46:01;;;;;;;7.30;4.47;;;3.80;99.90;;;;;;5031334;28;20218;-68
2021/11/10 05:48:27;;;;;;;6.40;5.47;;;3.70;99.90;;;;;;5031496;28;20196;-68
2021/11/10 05:50:52;;;;;;;7.40;4.73;;;3.70;99.90;;;;;;5031214;28;20537;-70
2021/11/10 05:53:18;;;;;;;5.13;3.40;;;3.70;99.90;;;;;;5031243;28;20406;-68
2021/11/10 05:55:45;;;;;;;9.83;4.80;;;3.70;99.90;;;;;;5031070;28;20250;-68
2021/11/10 05:58:11;;;;;;;6.97;5.47;;;3.70;99.90;;;;;;5031406;28;20832;-68
2021/11/10 06:00:37;;;;;;;8.57;4.47;;;3.70;99.90;;;;;;5031257;28;20854;-70
2021/11/10 06:03:03;;;;;;;7.27;5.13;;;3.70;99.90;;;;;;5031033;28;20465;-68
2021/11/10 06:05:29;;;;;;;11.30;6.30;;;3.70;99.90;;;;;;5031076;28;20437;-68
2021/11/10 06:07:56;;;;;;;6.80;4.90;;;3.70;99.90;;;;;;5031223;28;20775;-68
2021/11/10 06:10:22;;;;;;;7.20;4.70;;;3.80;99.90;;;;;;5030846;28;20426;-68
2021/11/10 06:12:49;;;;;;;11.67;5.17;;;3.80;99.90;;;;;;5031034;28;20467;-69
2021/11/10 06:15:16;;;;;;;8.00;4.60;;;3.80;99.90;;;;;;5031143;28;20434;-68
2021/11/10 06:17:42;;;;;;;8.50;5.90;;;3.80;99.90;;;;;;5030995;28;20422;-68
2021/11/10 06:20:09;;;;;;;8.60;5.80;;;3.80;99.90;;;;;;5031228;28;20483;-68
2021/11/10 06:22:34;;;;;;;6.53;5.93;;;3.80;99.90;;;;;;5031023;28;20446;-70
2021/11/10 06:25:00;;;;;;;11.17;5.37;;;3.80;99.90;;;;;;5030876;28;20938;-68
2021/11/10 06:27:27;;;;;;;7.60;4.57;;;3.90;99.90;;;;;;5031070;28;20175;-68
2021/11/10 06:29:52;;;;;;;6.63;5.87;;;3.90;99.90;;;;;;5030913;28;20430;-68
2021/11/10 06:32:18;;;;;;;8.63;5.67;;;3.90;99.90;;;;;;5031129;28;20415;-68
2021/11/10 06:34:44;;;;;;;13.80;6.80;;;3.90;99.90;;;;;;5032636;28;20492;-68
2021/11/10 06:37:09;;;;;;;7.63;6.90;;;3.90;99.90;;;;;;5035024;28;20176;-68
2021/11/10 06:39:35;;;;;;;7.13;4.43;;;3.90;99.90;;;;;;5034754;28;20191;-68
2021/11/10 06:42:00;;;;;;;10.27;6.37;;;3.90;99.90;;;;;;5034872;28;20199;-67
2021/11/10 06:44:26;;;;;;;5.70;5.10;;;4.00;99.90;;;;;;5034862;28;20168;-67
2021/11/10 06:46:51;;;;;;;7.30;4.80;;;4.00;99.90;;;;;;5034838;28;20164;-68
2021/11/10 06:49:17;;;;;;;9.13;6.00;;;4.00;99.90;;;;;;5034800;28;20283;-71
2021/11/10 06:51:42;;;;;;;7.63;6.07;;;4.10;99.90;;;;;;5034618;28;20170;-68
2021/11/10 06:54:08;;;;;;;7.83;4.50;;;4.10;99.90;;;;;;5034575;28;20175;-68
2021/11/10 06:56:34;;;;;;;10.17;5.67;;;4.10;99.90;;;;;;5034523;28;20225;-68
2021/11/10 06:59:00;;;;;;;6.50;4.60;;;4.20;99.90;;;;;;5034336;28;20426;-68
2021/11/10 07:01:26;;;;;;;7.70;5.83;;;4.20;99.90;;;;;;5034497;28;20172;-68
2021/11/10 07:03:52;;;;;;;6.00;5.40;;;4.30;99.90;;;;;;5034236;28;20461;-69
2021/11/10 07:06:18;;;;;;;9.43;5.83;;;4.30;99.90;;;;;;5034362;28;20420;-68
2021/11/10 07:08:43;;;;;;;9.33;8.43;;;4.30;99.90;;;;;;5034123;28;20418;-69
2021/11/10 07:11:10;;;;;;;7.57;5.53;;;4.30;99.90;;;;;;5034172;28;20182;-68
2021/11/10 07:13:36;;;;;;;6.67;5.83;;;4.40;99.90;;;;;;5034219;28;20168;-68
2021/11/10 07:16:02;;;;;;;6.77;6.07;;;4.50;99.90;;;;;;5032878;28;20463;-67
2021/11/10 07:18:27;;;;;;;8.70;5.03;;;4.50;99.90;;;;;;5034002;28;20450;-69
2021/11/10 07:20:53;;;;;;;6.17;4.80;;;4.60;99.90;;;;;;5034016;28;20480;-67
2021/11/10 07:23:19;;;;;;;5.97;5.37;;;4.70;99.90;;;;;;5033815;28;20238;-68
2021/11/10 07:25:44;;;;;;;12.70;5.93;;;4.80;99.90;;;;;;5032474;28;20176;-67
2021/11/10 07:28:10;;;;;;;7.30;5.43;;;4.90;99.90;;;;;;5033871;28;20196;-68
2021/11/10 07:30:37;;;;;;;13.10;6.00;;;4.90;99.90;;;;;;5034401;28;20580;-67
2021/11/10 07:33:03;;;;;;;7.80;5.83;;;5.00;99.90;;;;;;5033904;28;20174;-67
2021/11/10 07:35:29;;;;;;;8.80;6.17;;;5.00;99.90;;;;;;5033765;28;20501;-68
2021/11/10 07:37:55;;;;;;;7.30;5.37;;;5.10;99.90;;;;;;5033612;28;20195;-67
2021/11/10 07:40:22;;;;;;;6.87;5.80;;;5.10;99.90;;;;;;5033933;28;20438;-67
2021/11/10 07:42:47;;;;;;;12.57;5.70;;;5.10;99.90;;;;;;5034213;28;20515;-66
2021/11/10 07:45:20;;;;;;;8.10;4.47;;;5.20;99.90;;;;;;5033398;28;20854;-68
2021/11/10 07:47:46;;;;;;;8.27;6.33;;;5.70;99.90;;;;;;5033854;28;20160;-67
2021/11/10 07:50:16;;;;;;;7.07;6.33;;;6.30;99.90;;;;;;5033550;28;20430;-69
2021/11/10 07:52:42;;;;;;;7.90;6.23;;;6.60;99.90;;;;;;5033585;28;20909;-69
2021/11/10 07:55:08;;;;;;;9.43;6.37;;;6.80;99.90;;;;;;5033670;28;20410;-69
2021/11/10 07:57:35;;;;;;;6.77;5.43;;;7.10;99.90;;;;;;5033663;28;20513;-69
2021/11/10 08:00:05;;;;;;;8.03;4.87;;;7.40;99.90;;;;;;5033473;28;20517;-69
2021/11/10 08:02:31;;;;;;;6.53;5.03;;;7.20;99.90;;;;;;5033967;28;20530;-68
2021/11/10 08:04:56;;;;;;;7.57;5.13;;;7.10;99.90;;;;;;5034256;28;20402;-69
2021/11/10 08:07:22;;;;;;;7.37;5.80;;;6.80;99.90;;;;;;5033223;28;20171;-68
2021/11/10 08:09:47;;;;;;;15.57;5.57;;;6.80;99.90;;;;;;5033303;28;20206;-70
2021/11/10 08:12:13;;;;;;;10.83;5.50;;;6.60;99.90;;;;;;5033533;28;20171;-69
2021/11/10 08:14:38;;;;;;;12.03;5.83;;;6.70;99.90;;;;;;5033383;28;20171;-68
2021/11/10 08:17:04;;;;;;;5.93;5.30;;;6.50;99.90;;;;;;5033161;28;20186;-69
2021/11/10 08:19:29;;;;;;;6.23;4.73;;;6.60;99.90;;;;;;5033119;28;20196;-71
2021/11/10 08:21:56;;;;;;;8.87;5.10;;;6.60;99.90;;;;;;5033169;28;22075;-69
2021/11/10 08:24:22;;;;;;;5.80;4.63;;;6.70;99.90;;;;;;5032992;28;20183;-70
2021/11/10 08:26:47;;;;;;;6.90;5.20;;;6.70;99.90;;;;;;5033117;28;20418;-69
2021/11/10 08:29:13;;;;;;;11.40;5.50;;;6.60;99.90;;;;;;5033410;28;20191;-69
2021/11/10 08:31:38;;;;;;;5.60;3.80;;;6.70;99.90;;;;;;5032897;28;20526;-69
2021/11/10 08:34:04;;;;;;;6.20;5.23;;;7.10;99.90;;;;;;5032838;28;20211;-69
2021/11/10 08:36:29;;;;;;;8.03;4.60;;;7.20;99.90;;;;;;5032846;28;20183;-68
2021/11/10 08:38:55;;;;;;;8.00;4.47;;;7.20;99.90;;;;;;5032874;28;20191;-69
2021/11/10 08:41:21;;;;;;;4.33;3.43;;;7.40;99.90;;;;;;5032766;28;20610;-74
2021/11/10 08:43:48;;;;;;;7.23;4.53;;;7.20;99.90;;;;;;5032618;28;20287;-68
2021/11/10 08:46:14;;;;;;;7.00;4.50;;;7.20;99.90;;;;;;5024936;28;20430;-68
2021/11/10 08:48:39;;;;;;;6.40;3.97;;;7.30;99.90;;;;;;5031189;28;20969;-68
2021/11/10 08:51:05;;;;;;;6.17;5.30;;;7.20;99.90;;;;;;5032712;28;20760;-69
2021/11/10 08:53:32;;;;;;;5.27;4.50;;;7.60;99.90;;;;;;5031331;28;20185;-69
2021/11/10 08:55:58;;;;;;;5.03;3.80;;;7.40;99.90;;;;;;5032623;28;20258;-68
2021/11/10 08:58:25;;;;;;;10.13;5.20;;;7.40;99.90;;;;;;5032034;28;20519;-68
2021/11/10 09:00:52;;;;;;;6.63;4.80;;;7.50;99.90;;;;;;5032397;28;20764;-69
2021/11/10 09:03:20;;;;;;;7.50;4.47;;;7.30;99.90;;;;;;5015162;28;20456;-69
2021/11/10 09:05:45;;;;;;;5.00;3.70;;;7.30;99.90;;;;;;5012482;28;20405;-69
2021/11/10 09:08:11;;;;;;;9.03;4.17;;;7.40;99.90;;;;;;5012552;28;20415;-69
2021/11/10 09:10:37;;;;;;;6.60;4.77;;;7.20;99.90;;;;;;5012685;28;20168;-68
2021/11/10 09:13:03;;;;;;;5.13;3.97;;;7.40;99.90;;;;;;5012699;28;20187;-69
2021/11/10 09:15:31;;;;;;;6.00;4.30;;;7.50;99.90;;;;;;5012523;28;20473;-68
2021/11/10 09:17:57;;;;;;;10.10;4.60;;;7.80;99.90;;;;;;5012251;28;20435;-70
2021/11/10 09:20:25;;;;;;;7.23;5.27;;;8.20;99.90;;;;;;5013182;28;20597;-70
2021/11/10 09:22:51;;;;;;;6.27;5.67;;;8.50;99.90;;;;;;5012532;28;20525;-69
2021/11/10 09:25:18;;;;;;;7.80;5.20;;;7.80;99.90;;;;;;5012200;28;20494;-68
2021/11/10 09:27:45;;;;;;;4.20;3.80;;;7.80;99.90;;;;;;5012246;28;20405;-68
2021/11/10 09:30:14;;;;;;;7.07;4.53;;;7.80;99.90;;;;;;5012166;28;20427;-69
2021/11/10 09:32:41;;;;;;;8.50;4.70;;;7.80;99.90;;;;;;5011914;28;20939;-69
2021/11/10 09:35:08;;;;;;;6.80;4.77;;;7.80;99.90;;;;;;5012086;28;20424;-69
2021/11/10 09:37:35;;;;;;;6.13;4.50;;;7.80;99.90;;;;;;5011857;28;20413;-69
2021/11/10 09:40:04;;;;;;;7.20;4.87;;;7.80;99.90;;;;;;5012082;28;20451;-69
2021/11/10 09:42:30;;;;;;;7.73;3.73;;;8.00;99.90;;;;;;5011688;28;20672;-68
2021/11/10 09:44:56;;;;;;;11.13;5.63;;;8.10;99.90;;;;;;5012674;28;20427;-69
2021/11/10 09:47:21;;;;;;;6.37;4.93;;;8.20;99.90;;;;;;5012368;28;20416;-68
2021/11/10 09:49:48;;;;;;;5.90;4.50;;;8.10;99.90;;;;;;5011634;28;20482;-69
2021/11/10 09:52:14;;;;;;;6.57;5.97;;;7.90;99.90;;;;;;5030847;28;20597;-69
2021/11/10 09:54:40;;;;;;;7.20;5.37;;;8.10;99.90;;;;;;5031193;28;20535;-69
2021/11/10 09:57:06;;;;;;;7.03;4.80;;;8.00;99.90;;;;;;5031349;28;20786;-68
2021/11/10 09:59:31;;;;;;;6.80;5.77;;;7.80;99.90;;;;;;5030935;28;20238;-68
2021/11/10 10:01:57;;;;;;;6.70;4.60;;;7.70;99.90;;;;;;5031222;28;20967;-69
2021/11/10 10:04:24;;;;;;;6.27;4.10;;;7.90;99.90;;;;;;5031007;28;20180;-69
2021/11/10 10:06:50;;;;;;;5.50;3.90;;;8.00;99.90;;;;;;5030437;28;20215;-69
2021/11/10 10:09:16;;;;;;;4.50;4.10;;;8.20;99.90;;;;;;5031490;28;21017;-69
2021/11/10 10:11:41;;;;;;;4.90;4.10;;;8.10;99.90;;;;;;5031143;28;20494;-69
2021/11/10 10:14:07;;;;;;;7.00;4.90;;;8.10;99.90;;;;;;5030809;28;20248;-69
2021/11/10 10:16:35;;;;;;;4.23;3.90;;;8.10;99.90;;;;;;5030944;28;20177;-70
2021/11/10 10:19:37;;;;;;;5.77;3.87;;;8.20;99.90;;;;;;5030930;28;20206;-69
2021/11/10 10:22:03;;;;;;;7.13;4.33;;;8.30;99.90;;;;;;5030942;28;20478;-70
2021/11/10 10:24:43;;;;;;;4.73;4.23;;;8.30;99.90;;;;;;5030552;28;20410;-68
2021/11/10 10:27:30;;;;;;;6.70;3.77;;;8.50;99.90;;;;;;5030922;28;20569;-68
2021/11/10 10:30:25;;;;;;;9.40;5.93;;;8.50;99.90;;;;;;5030835;28;20422;-68
2021/11/10 10:33:06;;;;;;;6.67;4.60;;;8.60;99.90;;;;;;5030886;28;20407;-68
2021/11/10 10:35:40;;;;;;;10.10;6.50;;;8.80;99.90;;;;;;5030670;28;20425;-68
2021/11/10 10:38:08;;;;;;;7.93;4.77;;;8.80;99.90;;;;;;5030956;28;20442;-69
2021/11/10 10:40:35;;;;;;;4.70;4.30;;;8.80;99.90;;;;;;5030840;28;20422;-68
2021/11/10 10:43:02;;;;;;;5.47;4.10;;;9.10;99.90;;;;;;5030760;28;20453;-68
2021/11/10 10:45:40;;;;;;;7.17;4.40;;;9.30;99.90;;;;;;5030499;28;20426;-68
2021/11/10 10:48:21;;;;;;;7.23;4.87;;;9.30;99.90;;;;;;5030850;28;20402;-70
2021/11/10 10:50:50;;;;;;;6.10;4.50;;;9.30;99.90;;;;;;5030685;28;20455;-68
2021/11/10 10:53:36;;;;;;;5.27;4.40;;;9.10;99.90;;;;;;5029485;28;20442;-70
2021/11/10 10:56:13;;;;;;;6.07;4.33;;;9.20;99.90;;;;;;5030675;28;20495;-67
2021/11/10 10:58:40;;;;;;;5.60;4.00;;;9.40;99.90;;;;;;5030666;28;20441;-68
2021/11/10 11:01:30;;;;;;;9.63;4.50;;;9.30;99.90;;;;;;5029370;28;20428;-68
2021/11/10 11:04:00;;;;;;;10.23;5.40;;;9.50;99.90;;;;;;5030419;28;21044;-68
2021/11/10 11:06:27;;;;;;;5.57;4.03;;;9.60;99.90;;;;;;5030593;28;21007;-68
2021/11/10 11:08:55;;;;;;;4.33;3.50;;;9.70;99.90;;;;;;5029351;28;20444;-69
2021/11/10 11:11:36;;;;;;;6.30;4.80;;;9.80;99.90;;;;;;5030587;28;20983;-69
2021/11/10 11:14:02;;;;;;;7.93;4.20;;;9.80;99.90;;;;;;5030519;28;20416;-68
2021/11/10 11:16:35;;;;;;;4.70;4.10;;;9.70;99.90;;;;;;5030327;28;20414;-68
2021/11/10 11:19:33;;;;;;;10.83;4.63;;;9.60;99.90;;;;;;5030348;28;20544;-69
2021/11/10 11:22:00;;;;;;;4.63;3.57;;;9.60;99.90;;;;;;5029064;28;20438;-68
2021/11/10 11:24:43;;;;;;;7.50;4.57;;;9.70;99.90;;;;;;5024831;28;20506;-69
2021/11/10 11:27:27;;;;;;;8.90;4.60;;;9.70;99.90;;;;;;5025025;28;20418;-69
2021/11/10 11:30:13;;;;;;;6.60;5.07;;;9.80;99.90;;;;;;5033288;28;20474;-70
2021/11/10 11:32:41;;;;;;;8.00;3.60;;;9.80;99.90;;;;;;5026056;28;20406;-68
2021/11/10 11:35:08;;;;;;;7.47;4.80;;;10.00;99.90;;;;;;5033846;28;20433;-71
2021/11/10 11:37:34;;;;;;;6.97;4.10;;;9.90;99.90;;;;;;5033832;28;20411;-69
2021/11/10 11:40:27;;;;;;;6.10;4.13;;;10.10;99.90;;;;;;5033093;28;20483;-70
2021/11/10 11:42:54;;;;;;;7.70;4.60;;;10.10;99.90;;;;;;5030786;28;20203;-69
2021/11/10 11:45:22;;;;;;;4.30;3.40;;;9.90;99.90;;;;;;5033607;28;20750;-71
2021/11/10 11:47:49;;;;;;;9.30;5.80;;;9.70;99.90;;;;;;5033750;28;20893;-72
2021/11/10 11:50:16;;;;;;;7.00;3.90;;;9.70;99.90;;;;;;5033238;28;20525;-68
2021/11/10 11:52:44;;;;;;;5.40;4.40;;;9.80;99.90;;;;;;5017365;28;20442;-69
2021/11/10 11:55:22;;;;;;;8.07;4.57;;;9.80;99.90;;;;;;5033704;28;20489;-69
2021/11/10 11:58:21;;;;;;;4.73;4.20;;;9.80;99.90;;;;;;5033783;28;20402;-69
2021/11/10 12:01:13;;;;;;;5.43;4.27;;;9.80;99.90;;;;;;5028904;28;20453;-69
2021/11/10 12:03:43;;;;;;;8.50;4.73;;;10.00;99.90;;;;;;5031620;28;20466;-69
2021/11/10 12:06:09;;;;;;;5.73;5.00;;;10.10;99.90;;;;;;5033069;28;20399;-68
2021/11/10 12:08:44;;;;;;;8.50;4.87;;;10.00;99.90;;;;;;5033366;28;20999;-70
2021/11/10 12:11:35;;;;;;;5.00;3.33;;;9.90;99.90;;;;;;5036124;28;20656;-68
2021/11/10 12:14:21;;;;;;;6.17;4.63;;;9.90;99.90;;;;;;5013092;28;20445;-69
2021/11/10 12:17:07;;;;;;;7.70;5.03;;;10.10;99.90;;;;;;5012832;28;20502;-69
2021/11/10 12:19:37;;;;;;;8.13;5.13;;;10.10;99.90;;;;;;5013004;28;20431;-69
2021/11/10 12:22:12;;;;;;;7.47;6.03;;;10.20;99.90;;;;;;5013002;28;20966;-69
2021/11/10 12:24:55;;;;;;;8.77;4.40;;;10.10;99.90;;;;;;5012896;28;20499;-68
2021/11/10 12:27:32;;;;;;;7.93;4.80;;;10.00;99.90;;;;;;5012716;28;20414;-69
2021/11/10 12:30:10;;;;;;;8.70;5.13;;;10.00;99.90;;;;;;5020071;28;20435;-68
2021/11/10 12:32:36;;;;;;;6.90;4.53;;;10.10;99.90;;;;;;5031263;28;20897;-68
2021/11/10 12:35:04;;;;;;;5.27;4.73;;;10.00;99.90;;;;;;5032206;28;20410;-68
2021/11/10 12:37:35;;;;;;;7.37;4.43;;;9.90;99.90;;;;;;5032404;28;20951;-68
2021/11/10 12:40:10;;;;;;;10.37;5.67;;;9.70;99.90;;;;;;5032264;28;20433;-69
2021/11/10 12:42:51;;;;;;;9.03;5.27;;;9.50;99.90;;;;;;5032267;28;20567;-69
2021/11/10 12:45:24;;;;;;;5.60;4.10;;;9.60;99.90;;;;;;5032186;28;20406;-68
2021/11/10 12:47:51;;;;;;;6.90;3.90;;;9.60;99.90;;;;;;5032140;28;20406;-69
2021/11/10 12:50:27;;;;;;;6.73;5.00;;;9.60;99.90;;;;;;5031897;28;20434;-68
2021/11/10 12:52:55;;;;;;;7.70;5.60;;;9.40;99.90;;;;;;5032152;28;20519;-70
2021/11/10 12:55:24;;;;;;;5.73;4.60;;;9.50;99.90;;;;;;5032082;28;20525;-70
2021/11/10 12:57:50;;;;;;;5.60;4.57;;;9.30;99.90;;;;;;5031983;28;20423;-69
2021/11/10 13:00:18;;;;;;;5.57;4.97;;;9.50;99.90;;;;;;5032016;28;20484;-70
2021/11/10 13:02:45;;;;;;;5.73;5.17;;;9.50;99.90;;;;;;5032081;28;20450;-71
2021/11/10 13:05:13;;;;;;;4.83;3.90;;;9.50;99.90;;;;;;5032033;28;20410;-68